sensor_id;sensor_type;location;lat;lon;timestamp;pressure;altitude;pressure_sealevel;temperature;humidity
11049;BME280;5577;42.706;23.160;2023-02-28T00:02:15;94596.28;;;5.63;100.00
11049;BME280;5577;42.706;23.160;2023-02-28T00:05:01;94599.69;;;5.64;100.00
11049;BME280;5577;42.706;23.160;2023-02-28T00:07:47;94603.09;;;5.64;100.00
11049;BME280;5577;42.706;23.160;2023-02-28T00:10:32;94599.41;;;5.74;100.00
11049;BME280;5577;42.706;23.160;2023-02-28T00:13:16;94605.38;;;5.57;100.00
11049;BME280;5577;42.706;23.160;2023-02-28T00:16:06;94602.75;;;5.57;100.00
11049;BME280;5577;42.706;23.160;2023-02-28T00:18:51;94609.22;;;5.21;100.00
11049;BME280;5577;42.706;23.160;2023-02-28T00:21:35;94616.53;;;5.10;100.00
11049;BME280;5577;42.706;23.160;2023-02-28T00:24:19;94576.19;;;4.76;100.00
11049;BME280;5577;42.706;23.160;2023-02-28T00:27:03;94611.28;;;5.10;100.00
11049;BME280;5577;42.706;23.160;2023-02-28T00:29:47;94621.69;;;5.15;100.00
11049;BME280;5577;42.706;23.160;2023-02-28T00:32:31;94623.06;;;5.13;100.00
11049;BME280;5577;42.706;23.160;2023-02-28T00:35:16;94633.38;;;5.09;100.00
11049;BME280;5577;42.706;23.160;2023-02-28T00:38:00;94625.34;;;5.06;100.00
11049;BME280;5577;42.706;23.160;2023-02-28T00:40:44;94635.50;;;5.07;100.00
11049;BME280;5577;42.706;23.160;2023-02-28T00:43:28;94630.97;;;5.21;100.00
11049;BME280;5577;42.706;23.160;2023-02-28T00:46:12;94633.28;;;5.23;100.00
11049;BME280;5577;42.706;23.160;2023-02-28T00:48:57;94620.31;;;4.96;100.00
11049;BME280;5577;42.706;23.160;2023-02-28T00:51:41;94596.13;;;4.99;100.00
11049;BME280;5577;42.706;23.160;2023-02-28T00:54:25;94625.00;;;5.29;100.00
11049;BME280;5577;42.706;23.160;2023-02-28T00:57:09;94627.03;;;5.32;100.00
11049;BME280;5577;42.706;23.160;2023-02-28T00:59:53;94593.56;;;5.16;100.00
11049;BME280;5577;42.706;23.160;2023-02-28T01:02:40;94625.13;;;5.46;100.00
11049;BME280;5577;42.706;23.160;2023-02-28T01:05:24;94613.38;;;5.52;100.00
11049;BME280;5577;42.706;23.160;2023-02-28T01:08:08;94615.09;;;5.57;100.00
11049;BME280;5577;42.706;23.160;2023-02-28T01:10:52;94622.38;;;5.60;100.00
11049;BME280;5577;42.706;23.160;2023-02-28T01:13:36;94612.81;;;5.64;100.00
11049;BME280;5577;42.706;23.160;2023-02-28T01:16:21;94613.50;;;5.78;100.00
11049;BME280;5577;42.706;23.160;2023-02-28T01:19:05;94616.13;;;5.78;100.00
11049;BME280;5577;42.706;23.160;2023-02-28T01:21:48;94601.50;;;5.85;100.00
11049;BME280;5577;42.706;23.160;2023-02-28T01:24:32;94615.44;;;5.94;100.00
11049;BME280;5577;42.706;23.160;2023-02-28T01:27:16;94553.47;;;5.54;100.00
11049;BME280;5577;42.706;23.160;2023-02-28T01:30:00;94608.94;;;5.92;100.00
11049;BME280;5577;42.706;23.160;2023-02-28T01:32:44;94601.56;;;5.72;100.00
11049;BME280;5577;42.706;23.160;2023-02-28T01:35:32;94612.84;;;5.72;100.00
11049;BME280;5577;42.706;23.160;2023-02-28T01:38:16;94600.06;;;5.79;100.00
11049;BME280;5577;42.706;23.160;2023-02-28T01:41:00;94617.81;;;5.74;100.00
11049;BME280;5577;42.706;23.160;2023-02-28T01:46:33;94609.03;;;5.78;100.00
11049;BME280;5577;42.706;23.160;2023-02-28T01:49:18;94616.91;;;5.78;100.00
11049;BME280;5577;42.706;23.160;2023-02-28T01:52:03;94608.50;;;5.68;100.00
11049;BME280;5577;42.706;23.160;2023-02-28T01:54:51;94607.75;;;5.67;100.00
11049;BME280;5577;42.706;23.160;2023-02-28T01:57:45;94602.69;;;5.79;100.00
11049;BME280;5577;42.706;23.160;2023-02-28T02:00:30;94609.47;;;5.80;100.00
11049;BME280;5577;42.706;23.160;2023-02-28T02:03:17;94611.16;;;5.76;100.00
11049;BME280;5577;42.706;23.160;2023-02-28T02:06:02;94615.88;;;5.88;100.00
11049;BME280;5577;42.706;23.160;2023-02-28T02:08:47;94618.81;;;5.86;100.00
11049;BME280;5577;42.706;23.160;2023-02-28T02:11:31;94614.66;;;5.85;100.00
11049;BME280;5577;42.706;23.160;2023-02-28T02:17:31;94614.03;;;5.97;100.00
11049;BME280;5577;42.706;23.160;2023-02-28T02:20:32;94613.28;;;5.97;100.00
11049;BME280;5577;42.706;23.160;2023-02-28T02:38:33;94610.53;;;6.10;100.00
11049;BME280;5577;42.706;23.160;2023-02-28T02:41:38;94615.03;;;6.10;100.00
11049;BME280;5577;42.706;23.160;2023-02-28T02:44:29;94479.81;;;5.20;100.00
11049;BME280;5577;42.706;23.160;2023-02-28T02:47:18;94614.25;;;6.09;100.00
11049;BME280;5577;42.706;23.160;2023-02-28T02:50:08;94617.16;;;5.99;100.00
11049;BME280;5577;42.706;23.160;2023-02-28T02:52:57;94631.03;;;5.91;100.00
11049;BME280;5577;42.706;23.160;2023-02-28T02:55:47;94623.28;;;5.86;100.00
11049;BME280;5577;42.706;23.160;2023-02-28T02:58:40;94619.16;;;5.93;100.00
11049;BME280;5577;42.706;23.160;2023-02-28T03:01:26;94612.53;;;6.05;100.00
11049;BME280;5577;42.706;23.160;2023-02-28T03:04:18;94569.91;;;5.68;100.00
11049;BME280;5577;42.706;23.160;2023-02-28T03:07:02;94631.22;;;6.03;100.00
11049;BME280;5577;42.706;23.160;2023-02-28T03:09:54;94533.50;;;5.45;100.00
11049;BME280;5577;42.706;23.160;2023-02-28T03:12:51;94630.03;;;6.09;100.00
11049;BME280;5577;42.706;23.160;2023-02-28T03:16:10;94572.50;;;5.60;100.00
11049;BME280;5577;42.706;23.160;2023-02-28T03:19:31;94624.28;;;6.07;100.00
11049;BME280;5577;42.706;23.160;2023-02-28T03:31:37;94644.25;;;6.08;100.00
11049;BME280;5577;42.706;23.160;2023-02-28T03:34:27;94652.66;;;5.88;100.00
11049;BME280;5577;42.706;23.160;2023-02-28T03:37:19;94595.25;;;5.42;100.00
11049;BME280;5577;42.706;23.160;2023-02-28T03:40:08;94659.34;;;5.94;100.00
11049;BME280;5577;42.706;23.160;2023-02-28T03:42:59;94670.47;;;5.91;100.00
11049;BME280;5577;42.706;23.160;2023-02-28T03:45:47;94667.19;;;5.85;100.00
11049;BME280;5577;42.706;23.160;2023-02-28T03:48:48;94676.31;;;5.88;100.00
11049;BME280;5577;42.706;23.160;2023-02-28T03:51:35;94629.88;;;5.44;100.00
11049;BME280;5577;42.706;23.160;2023-02-28T03:54:26;94680.97;;;5.69;100.00
11049;BME280;5577;42.706;23.160;2023-02-28T04:00:21;94668.81;;;5.51;100.00
11049;BME280;5577;42.706;23.160;2023-02-28T04:03:09;94684.22;;;5.44;100.00
11049;BME280;5577;42.706;23.160;2023-02-28T04:05:55;94686.69;;;5.40;100.00
11049;BME280;5577;42.706;23.160;2023-02-28T04:08:39;94686.03;;;5.35;100.00
11049;BME280;5577;42.706;23.160;2023-02-28T04:14:13;94681.09;;;5.33;100.00
11049;BME280;5577;42.706;23.160;2023-02-28T04:16:57;94617.88;;;4.99;100.00
11049;BME280;5577;42.706;23.160;2023-02-28T04:19:41;94621.84;;;5.19;100.00
11049;BME280;5577;42.706;23.160;2023-02-28T04:22:25;94620.69;;;5.03;100.00
11049;BME280;5577;42.706;23.160;2023-02-28T04:25:12;94675.81;;;5.55;100.00
11049;BME280;5577;42.706;23.160;2023-02-28T04:27:55;94682.19;;;5.63;100.00
11049;BME280;5577;42.706;23.160;2023-02-28T04:30:39;94682.50;;;5.61;100.00
11049;BME280;5577;42.706;23.160;2023-02-28T04:33:23;94690.53;;;5.65;100.00
11049;BME280;5577;42.706;23.160;2023-02-28T04:36:08;94678.47;;;5.64;100.00
11049;BME280;5577;42.706;23.160;2023-02-28T04:38:52;94692.59;;;5.76;100.00
11049;BME280;5577;42.706;23.160;2023-02-28T04:41:37;94619.63;;;5.34;100.00
11049;BME280;5577;42.706;23.160;2023-02-28T04:44:22;94648.13;;;5.49;100.00
11049;BME280;5577;42.706;23.160;2023-02-28T04:47:06;94700.91;;;5.92;100.00
11049;BME280;5577;42.706;23.160;2023-02-28T04:49:50;94700.59;;;5.93;100.00
11049;BME280;5577;42.706;23.160;2023-02-28T04:52:34;94705.88;;;5.93;100.00
11049;BME280;5577;42.706;23.160;2023-02-28T04:55:18;94700.91;;;5.92;100.00
11049;BME280;5577;42.706;23.160;2023-02-28T04:58:02;94704.97;;;5.98;100.00
11049;BME280;5577;42.706;23.160;2023-02-28T05:00:46;94713.31;;;6.00;100.00
11049;BME280;5577;42.706;23.160;2023-02-28T05:03:30;94712.25;;;6.01;100.00
11049;BME280;5577;42.706;23.160;2023-02-28T05:06:14;94704.34;;;6.01;100.00
11049;BME280;5577;42.706;23.160;2023-02-28T05:08:58;94712.00;;;5.89;100.00
11049;BME280;5577;42.706;23.160;2023-02-28T05:11:43;94704.63;;;5.91;100.00
11049;BME280;5577;42.706;23.160;2023-02-28T05:14:27;94708.63;;;5.88;100.00
11049;BME280;5577;42.706;23.160;2023-02-28T05:17:10;94725.94;;;5.89;100.00
11049;BME280;5577;42.706;23.160;2023-02-28T05:19:54;94720.25;;;5.96;100.00
11049;BME280;5577;42.706;23.160;2023-02-28T05:22:39;94713.09;;;5.88;100.00
11049;BME280;5577;42.706;23.160;2023-02-28T05:25:24;94719.03;;;6.02;100.00
11049;BME280;5577;42.706;23.160;2023-02-28T05:28:08;94683.94;;;5.76;100.00
11049;BME280;5577;42.706;23.160;2023-02-28T05:30:52;94728.41;;;5.94;100.00
11049;BME280;5577;42.706;23.160;2023-02-28T05:33:36;94721.03;;;5.97;100.00
11049;BME280;5577;42.706;23.160;2023-02-28T05:36:21;94731.69;;;6.00;100.00
11049;BME280;5577;42.706;23.160;2023-02-28T05:39:06;94734.91;;;5.97;100.00
11049;BME280;5577;42.706;23.160;2023-02-28T05:41:51;94734.50;;;6.04;100.00
11049;BME280;5577;42.706;23.160;2023-02-28T05:44:36;94741.78;;;6.07;100.00
11049;BME280;5577;42.706;23.160;2023-02-28T05:47:19;94741.84;;;6.15;100.00
11049;BME280;5577;42.706;23.160;2023-02-28T05:50:05;94737.78;;;6.09;100.00
11049;BME280;5577;42.706;23.160;2023-02-28T05:52:52;94741.00;;;6.06;100.00
11049;BME280;5577;42.706;23.160;2023-02-28T05:55:36;94740.19;;;5.97;100.00
11049;BME280;5577;42.706;23.160;2023-02-28T05:58:21;94746.09;;;6.03;100.00
11049;BME280;5577;42.706;23.160;2023-02-28T06:01:37;94740.03;;;5.93;100.00
11049;BME280;5577;42.706;23.160;2023-02-28T06:04:22;94731.00;;;5.86;100.00
11049;BME280;5577;42.706;23.160;2023-02-28T06:07:06;94664.50;;;5.55;100.00
11049;BME280;5577;42.706;23.160;2023-02-28T06:09:51;94730.75;;;5.96;100.00
11049;BME280;5577;42.706;23.160;2023-02-28T06:12:34;94749.44;;;6.17;100.00
11049;BME280;5577;42.706;23.160;2023-02-28T06:15:18;94748.69;;;6.25;100.00
11049;BME280;5577;42.706;23.160;2023-02-28T06:18:04;94749.63;;;6.29;100.00
11049;BME280;5577;42.706;23.160;2023-02-28T06:20:53;94757.50;;;6.29;100.00
11049;BME280;5577;42.706;23.160;2023-02-28T06:23:38;94756.06;;;6.23;100.00
11049;BME280;5577;42.706;23.160;2023-02-28T06:26:22;94755.38;;;6.39;100.00
11049;BME280;5577;42.706;23.160;2023-02-28T06:29:06;94760.91;;;6.29;100.00
11049;BME280;5577;42.706;23.160;2023-02-28T06:31:51;94761.88;;;6.33;100.00
11049;BME280;5577;42.706;23.160;2023-02-28T06:34:35;94759.09;;;6.38;100.00
11049;BME280;5577;42.706;23.160;2023-02-28T06:37:19;94755.06;;;6.41;100.00
11049;BME280;5577;42.706;23.160;2023-02-28T06:40:04;94768.72;;;6.51;100.00
11049;BME280;5577;42.706;23.160;2023-02-28T06:42:50;94770.56;;;6.51;100.00
11049;BME280;5577;42.706;23.160;2023-02-28T06:45:34;94765.31;;;6.51;100.00
11049;BME280;5577;42.706;23.160;2023-02-28T06:48:19;94773.25;;;6.59;100.00
11049;BME280;5577;42.706;23.160;2023-02-28T06:51:10;94776.53;;;6.73;100.00
11049;BME280;5577;42.706;23.160;2023-02-28T06:53:54;94782.56;;;6.65;100.00
11049;BME280;5577;42.706;23.160;2023-02-28T06:56:38;94770.47;;;6.73;100.00
11049;BME280;5577;42.706;23.160;2023-02-28T06:59:23;94774.19;;;6.72;100.00
11049;BME280;5577;42.706;23.160;2023-02-28T07:02:08;94772.38;;;6.81;100.00
11049;BME280;5577;42.706;23.160;2023-02-28T07:04:52;94780.41;;;6.76;100.00
11049;BME280;5577;42.706;23.160;2023-02-28T07:07:36;94770.34;;;6.69;100.00
11049;BME280;5577;42.706;23.160;2023-02-28T07:10:22;94777.59;;;6.64;100.00
11049;BME280;5577;42.706;23.160;2023-02-28T07:13:06;94777.28;;;6.65;100.00
11049;BME280;5577;42.706;23.160;2023-02-28T07:15:58;94787.69;;;6.79;100.00
11049;BME280;5577;42.706;23.160;2023-02-28T07:18:43;94772.66;;;6.71;100.00
11049;BME280;5577;42.706;23.160;2023-02-28T07:21:27;94783.56;;;6.95;100.00
11049;BME280;5577;42.706;23.160;2023-02-28T07:24:11;94779.69;;;6.92;100.00
11049;BME280;5577;42.706;23.160;2023-02-28T07:26:55;94774.88;;;6.94;100.00
11049;BME280;5577;42.706;23.160;2023-02-28T07:29:39;94773.28;;;6.76;100.00
11049;BME280;5577;42.706;23.160;2023-02-28T07:32:22;94766.19;;;6.77;100.00
11049;BME280;5577;42.706;23.160;2023-02-28T07:35:07;94781.06;;;6.90;100.00
11049;BME280;5577;42.706;23.160;2023-02-28T07:37:51;94783.88;;;6.93;100.00
11049;BME280;5577;42.706;23.160;2023-02-28T07:40:35;94753.19;;;6.89;100.00
11049;BME280;5577;42.706;23.160;2023-02-28T07:43:19;94697.53;;;6.48;100.00
11049;BME280;5577;42.706;23.160;2023-02-28T07:46:07;94784.00;;;6.97;100.00
11049;BME280;5577;42.706;23.160;2023-02-28T07:48:52;94767.00;;;7.11;100.00
11049;BME280;5577;42.706;23.160;2023-02-28T07:51:37;94771.19;;;7.21;100.00
11049;BME280;5577;42.706;23.160;2023-02-28T07:54:21;94766.56;;;7.26;100.00
11049;BME280;5577;42.706;23.160;2023-02-28T07:57:05;94763.63;;;7.45;100.00
11049;BME280;5577;42.706;23.160;2023-02-28T07:59:49;94773.69;;;7.43;100.00
11049;BME280;5577;42.706;23.160;2023-02-28T08:02:33;94762.38;;;7.42;100.00
11049;BME280;5577;42.706;23.160;2023-02-28T08:05:17;94764.84;;;7.64;100.00
11049;BME280;5577;42.706;23.160;2023-02-28T08:08:01;94736.66;;;7.56;100.00
11049;BME280;5577;42.706;23.160;2023-02-28T08:10:45;94765.63;;;7.82;100.00
11049;BME280;5577;42.706;23.160;2023-02-28T08:13:30;94774.28;;;7.82;100.00
11049;BME280;5577;42.706;23.160;2023-02-28T08:16:14;94777.72;;;7.74;100.00
11049;BME280;5577;42.706;23.160;2023-02-28T08:19:00;94772.13;;;7.84;100.00
11049;BME280;5577;42.706;23.160;2023-02-28T08:21:44;94779.72;;;7.94;100.00
11049;BME280;5577;42.706;23.160;2023-02-28T08:24:28;94776.75;;;7.96;100.00
11049;BME280;5577;42.706;23.160;2023-02-28T08:27:13;94781.09;;;7.83;100.00
11049;BME280;5577;42.706;23.160;2023-02-28T08:29:56;94776.19;;;7.73;100.00
11049;BME280;5577;42.706;23.160;2023-02-28T08:32:40;94778.00;;;7.81;100.00
11049;BME280;5577;42.706;23.160;2023-02-28T08:35:24;94776.47;;;7.89;100.00
11049;BME280;5577;42.706;23.160;2023-02-28T08:38:08;94777.22;;;7.89;100.00
11049;BME280;5577;42.706;23.160;2023-02-28T08:41:00;94770.25;;;7.85;100.00
11049;BME280;5577;42.706;23.160;2023-02-28T08:43:45;94768.41;;;7.68;100.00
11049;BME280;5577;42.706;23.160;2023-02-28T08:46:29;94780.84;;;7.68;100.00
11049;BME280;5577;42.706;23.160;2023-02-28T08:49:12;94782.81;;;7.79;100.00
11049;BME280;5577;42.706;23.160;2023-02-28T08:51:56;94777.84;;;7.78;100.00
11049;BME280;5577;42.706;23.160;2023-02-28T08:54:41;94785.13;;;7.89;100.00
11049;BME280;5577;42.706;23.160;2023-02-28T08:57:25;94776.16;;;7.82;100.00
11049;BME280;5577;42.706;23.160;2023-02-28T09:00:10;94772.72;;;7.90;100.00
11049;BME280;5577;42.706;23.160;2023-02-28T09:02:57;94774.72;;;8.01;100.00
11049;BME280;5577;42.706;23.160;2023-02-28T09:05:41;94775.63;;;8.14;100.00
11049;BME280;5577;42.706;23.160;2023-02-28T09:08:26;94772.69;;;8.24;100.00
11049;BME280;5577;42.706;23.160;2023-02-28T09:11:11;94767.84;;;8.26;100.00
11049;BME280;5577;42.706;23.160;2023-02-28T09:13:55;94764.72;;;8.32;100.00
11049;BME280;5577;42.706;23.160;2023-02-28T09:16:40;94765.50;;;8.33;100.00
11049;BME280;5577;42.706;23.160;2023-02-28T09:19:24;94766.31;;;8.25;100.00
11049;BME280;5577;42.706;23.160;2023-02-28T09:22:09;94770.06;;;8.07;100.00
11049;BME280;5577;42.706;23.160;2023-02-28T09:24:53;94764.59;;;8.20;100.00
11049;BME280;5577;42.706;23.160;2023-02-28T09:27:37;94767.72;;;8.22;100.00
11049;BME280;5577;42.706;23.160;2023-02-28T09:30:21;94766.81;;;8.10;100.00
11049;BME280;5577;42.706;23.160;2023-02-28T09:33:05;94770.81;;;8.16;100.00
11049;BME280;5577;42.706;23.160;2023-02-28T09:35:50;94766.63;;;8.15;100.00
11049;BME280;5577;42.706;23.160;2023-02-28T09:38:34;94764.59;;;8.20;100.00
11049;BME280;5577;42.706;23.160;2023-02-28T09:41:24;94764.78;;;8.24;100.00
11049;BME280;5577;42.706;23.160;2023-02-28T09:44:14;94750.81;;;8.23;100.00
11049;BME280;5577;42.706;23.160;2023-02-28T09:47:10;94762.59;;;8.26;100.00
11049;BME280;5577;42.706;23.160;2023-02-28T09:49:59;94760.69;;;8.43;100.00
11049;BME280;5577;42.706;23.160;2023-02-28T09:52:48;94758.00;;;8.52;100.00
11049;BME280;5577;42.706;23.160;2023-02-28T09:55:55;94761.16;;;8.37;100.00
11049;BME280;5577;42.706;23.160;2023-02-28T09:58:46;94714.47;;;8.20;100.00
11049;BME280;5577;42.706;23.160;2023-02-28T10:01:40;94755.31;;;8.60;100.00
11049;BME280;5577;42.706;23.160;2023-02-28T10:08:15;94744.31;;;8.88;100.00
11049;BME280;5577;42.706;23.160;2023-02-28T10:10:44;94743.28;;;9.01;100.00
11049;BME280;5577;42.706;23.160;2023-02-28T10:16:44;94732.66;;;9.50;100.00
11049;BME280;5577;42.706;23.160;2023-02-28T10:19:38;94725.13;;;9.61;100.00
11049;BME280;5577;42.706;23.160;2023-02-28T10:25:38;94728.66;;;9.65;100.00
11049;BME280;5577;42.706;23.160;2023-02-28T10:28:24;94726.31;;;9.84;100.00
11049;BME280;5577;42.706;23.160;2023-02-28T10:31:17;94725.44;;;9.92;100.00
11049;BME280;5577;42.706;23.160;2023-02-28T10:34:01;94712.72;;;10.06;100.00
11049;BME280;5577;42.706;23.160;2023-02-28T10:36:49;94719.22;;;10.08;100.00
11049;BME280;5577;42.706;23.160;2023-02-28T10:39:44;94707.69;;;10.25;100.00
11049;BME280;5577;42.706;23.160;2023-02-28T10:42:29;94704.03;;;10.41;100.00
11049;BME280;5577;42.706;23.160;2023-02-28T10:45:16;94660.94;;;10.41;100.00
11049;BME280;5577;42.706;23.160;2023-02-28T10:50:58;94675.56;;;10.86;100.00
11049;BME280;5577;42.706;23.160;2023-02-28T10:56:27;94680.94;;;11.14;100.00
11049;BME280;5577;42.706;23.160;2023-02-28T11:01:58;94670.88;;;11.47;100.00
11049;BME280;5577;42.706;23.160;2023-02-28T11:04:42;94655.53;;;10.73;100.00
11049;BME280;5577;42.706;23.160;2023-02-28T11:07:27;94660.75;;;10.97;100.00
11049;BME280;5577;42.706;23.160;2023-02-28T11:10:19;94657.75;;;11.38;100.00
11049;BME280;5577;42.706;23.160;2023-02-28T11:13:05;94655.25;;;11.85;100.00
11049;BME280;5577;42.706;23.160;2023-02-28T11:15:52;94640.88;;;11.86;100.00
11049;BME280;5577;42.706;23.160;2023-02-28T11:18:50;94639.09;;;12.37;100.00
11049;BME280;5577;42.706;23.160;2023-02-28T11:21:37;94632.97;;;12.67;100.00
11049;BME280;5577;42.706;23.160;2023-02-28T11:24:30;94632.03;;;12.94;100.00
11049;BME280;5577;42.706;23.160;2023-02-28T11:30:29;94624.94;;;12.83;100.00
11049;BME280;5577;42.706;23.160;2023-02-28T11:33:37;94626.75;;;12.44;100.00
11049;BME280;5577;42.706;23.160;2023-02-28T11:36:26;94624.53;;;12.15;100.00
11049;BME280;5577;42.706;23.160;2023-02-28T11:39:12;94616.00;;;12.06;100.00
11049;BME280;5577;42.706;23.160;2023-02-28T11:51:11;94618.63;;;11.75;100.00
11049;BME280;5577;42.706;23.160;2023-02-28T11:55:13;94612.41;;;11.55;100.00
11049;BME280;5577;42.706;23.160;2023-02-28T12:07:11;94610.66;;;10.92;100.00
11049;BME280;5577;42.706;23.160;2023-02-28T12:10:09;94598.84;;;11.45;100.00
11049;BME280;5577;42.706;23.160;2023-02-28T12:13:21;94600.59;;;11.53;100.00
11049;BME280;5577;42.706;23.160;2023-02-28T12:24:50;94605.16;;;11.25;100.00
11049;BME280;5577;42.706;23.160;2023-02-28T12:27:39;94599.28;;;11.04;100.00
11049;BME280;5577;42.706;23.160;2023-02-28T12:30:28;94607.50;;;11.14;100.00
11049;BME280;5577;42.706;23.160;2023-02-28T12:33:17;94592.53;;;11.06;100.00
11049;BME280;5577;42.706;23.160;2023-02-28T12:36:11;94604.44;;;11.12;100.00
11049;BME280;5577;42.706;23.160;2023-02-28T12:39:02;94597.44;;;11.20;100.00
11049;BME280;5577;42.706;23.160;2023-02-28T12:41:54;94569.94;;;10.97;100.00
11049;BME280;5577;42.706;23.160;2023-02-28T12:44:50;94600.81;;;11.05;100.00
11049;BME280;5577;42.706;23.160;2023-02-28T12:47:38;94595.75;;;11.00;100.00
11049;BME280;5577;42.706;23.160;2023-02-28T12:50:24;94552.50;;;10.56;100.00
11049;BME280;5577;42.706;23.160;2023-02-28T13:11:52;94572.00;;;11.03;100.00
11049;BME280;5577;42.706;23.160;2023-02-28T13:14:37;94562.00;;;10.97;100.00
11049;BME280;5577;42.706;23.160;2023-02-28T13:17:24;94574.56;;;11.00;100.00
11049;BME280;5577;42.706;23.160;2023-02-28T13:20:18;94566.38;;;11.05;100.00
11049;BME280;5577;42.706;23.160;2023-02-28T13:23:03;94570.63;;;11.37;100.00
11049;BME280;5577;42.706;23.160;2023-02-28T13:25:52;94576.03;;;11.40;100.00
11049;BME280;5577;42.706;23.160;2023-02-28T13:37:42;94563.63;;;11.44;100.00
11049;BME280;5577;42.706;23.160;2023-02-28T13:40:30;94562.91;;;11.91;100.00
11049;BME280;5577;42.706;23.160;2023-02-28T13:43:20;94552.13;;;12.15;100.00
11049;BME280;5577;42.706;23.160;2023-02-28T13:46:13;94553.59;;;12.12;100.00
11049;BME280;5577;42.706;23.160;2023-02-28T13:49:23;94549.59;;;12.37;100.00
11049;BME280;5577;42.706;23.160;2023-02-28T13:52:19;94514.19;;;12.14;100.00
11049;BME280;5577;42.706;23.160;2023-02-28T13:55:27;94538.31;;;12.59;100.00
11049;BME280;5577;42.706;23.160;2023-02-28T14:01:14;94544.53;;;11.98;100.00
11049;BME280;5577;42.706;23.160;2023-02-28T14:06:59;94539.91;;;11.95;100.00
11049;BME280;5577;42.706;23.160;2023-02-28T14:09:56;94549.63;;;11.59;100.00
11049;BME280;5577;42.706;23.160;2023-02-28T14:16:17;94505.16;;;11.10;100.00
11049;BME280;5577;42.706;23.160;2023-02-28T14:19:30;94550.41;;;11.17;100.00
11049;BME280;5577;42.706;23.160;2023-02-28T14:35:05;94552.09;;;10.82;100.00
11049;BME280;5577;42.706;23.160;2023-02-28T14:37:57;94553.97;;;10.81;100.00
11049;BME280;5577;42.706;23.160;2023-02-28T14:40:42;94559.84;;;10.75;100.00
11049;BME280;5577;42.706;23.160;2023-02-28T14:43:27;94552.38;;;10.65;100.00
11049;BME280;5577;42.706;23.160;2023-02-28T14:46:13;94551.66;;;10.52;100.00
11049;BME280;5577;42.706;23.160;2023-02-28T14:48:57;94549.53;;;10.46;100.00
11049;BME280;5577;42.706;23.160;2023-02-28T14:51:41;94541.50;;;10.42;100.00
11049;BME280;5577;42.706;23.160;2023-02-28T14:54:25;94534.13;;;10.36;100.00
11049;BME280;5577;42.706;23.160;2023-02-28T14:57:28;94547.16;;;10.29;100.00
11049;BME280;5577;42.706;23.160;2023-02-28T15:00:18;94549.56;;;10.22;100.00
11049;BME280;5577;42.706;23.160;2023-02-28T15:03:34;94548.94;;;10.13;100.00
11049;BME280;5577;42.706;23.160;2023-02-28T15:06:19;94549.47;;;10.06;100.00
11049;BME280;5577;42.706;23.160;2023-02-28T15:09:16;94546.25;;;10.01;100.00
11049;BME280;5577;42.706;23.160;2023-02-28T15:12:00;94556.94;;;9.92;100.00
11049;BME280;5577;42.706;23.160;2023-02-28T15:14:44;94550.44;;;9.90;100.00
11049;BME280;5577;42.706;23.160;2023-02-28T15:17:29;94550.66;;;9.97;100.00
11049;BME280;5577;42.706;23.160;2023-02-28T15:20:14;94563.66;;;9.90;100.00
11049;BME280;5577;42.706;23.160;2023-02-28T15:22:59;94554.44;;;9.84;100.00
11049;BME280;5577;42.706;23.160;2023-02-28T15:25:43;94554.22;;;9.77;100.00
11049;BME280;5577;42.706;23.160;2023-02-28T15:28:28;94556.63;;;9.70;100.00
11049;BME280;5577;42.706;23.160;2023-02-28T15:31:26;94555.63;;;9.62;100.00
11049;BME280;5577;42.706;23.160;2023-02-28T15:34:22;94570.59;;;9.58;100.00
11049;BME280;5577;42.706;23.160;2023-02-28T15:43:27;94577.09;;;9.49;100.00
11049;BME280;5577;42.706;23.160;2023-02-28T15:46:13;94576.06;;;9.41;100.00
11049;BME280;5577;42.706;23.160;2023-02-28T15:48:58;94566.88;;;9.27;100.00
11049;BME280;5577;42.706;23.160;2023-02-28T15:51:43;94576.13;;;9.21;100.00
11049;BME280;5577;42.706;23.160;2023-02-28T15:54:29;94583.34;;;9.12;100.00
11049;BME280;5577;42.706;23.160;2023-02-28T15:57:20;94579.47;;;8.76;100.00
11049;BME280;5577;42.706;23.160;2023-02-28T16:00:11;94590.41;;;8.46;100.00
11049;BME280;5577;42.706;23.160;2023-02-28T16:02:55;94592.94;;;8.34;100.00
11049;BME280;5577;42.706;23.160;2023-02-28T16:05:40;94604.34;;;8.17;100.00
11049;BME280;5577;42.706;23.160;2023-02-28T16:08:24;94599.16;;;8.00;100.00
11049;BME280;5577;42.706;23.160;2023-02-28T16:11:10;94604.66;;;7.87;100.00
11049;BME280;5577;42.706;23.160;2023-02-28T16:13:53;94603.91;;;7.78;100.00
11049;BME280;5577;42.706;23.160;2023-02-28T16:16:42;94613.56;;;7.65;100.00
11049;BME280;5577;42.706;23.160;2023-02-28T16:19:26;94613.75;;;7.60;100.00
11049;BME280;5577;42.706;23.160;2023-02-28T16:22:10;94616.59;;;7.47;100.00
11049;BME280;5577;42.706;23.160;2023-02-28T16:24:54;94627.75;;;7.44;100.00
11049;BME280;5577;42.706;23.160;2023-02-28T16:27:38;94618.34;;;7.26;100.00
11049;BME280;5577;42.706;23.160;2023-02-28T16:30:25;94632.84;;;7.40;100.00
11049;BME280;5577;42.706;23.160;2023-02-28T16:33:10;94631.00;;;7.41;100.00
11049;BME280;5577;42.706;23.160;2023-02-28T16:35:54;94613.84;;;7.18;100.00
11049;BME280;5577;42.706;23.160;2023-02-28T16:38:38;94641.53;;;7.41;100.00
11049;BME280;5577;42.706;23.160;2023-02-28T16:41:25;94636.41;;;7.36;100.00
11049;BME280;5577;42.706;23.160;2023-02-28T16:44:13;94599.78;;;6.97;100.00
11049;BME280;5577;42.706;23.160;2023-02-28T16:47:00;94658.44;;;7.31;100.00
11049;BME280;5577;42.706;23.160;2023-02-28T16:49:44;94669.59;;;7.37;100.00
11049;BME280;5577;42.706;23.160;2023-02-28T16:52:28;94668.97;;;7.40;100.00
11049;BME280;5577;42.706;23.160;2023-02-28T16:55:12;94655.03;;;7.31;100.00
11049;BME280;5577;42.706;23.160;2023-02-28T16:57:58;94667.72;;;7.37;100.00
11049;BME280;5577;42.706;23.160;2023-02-28T17:00:42;94671.75;;;7.43;100.00
11049;BME280;5577;42.706;23.160;2023-02-28T17:03:27;94663.53;;;7.36;100.00
11049;BME280;5577;42.706;23.160;2023-02-28T17:06:26;94674.69;;;7.42;100.00